Time;durP1;ratioP1;P1;durP2;ratioP2;P2;SDS_P1;SDS_P2;PMS_P1;PMS_P2;Temp;Humidity;BMP_temperature;BMP_pressure;BME280_temperature;BME280_humidity;BME280_pressure;Samples;Min_cycle;Max_cycle;Signal;HPM_P1;HPM_P2
2021/10/08 00:01:49;;;;;;;;;;;;;;;11.48;77.08;100410.94;6896374;20;18997;-41
2021/10/08 00:04:16;;;;;;;;;;;;;;;11.41;76.98;100405.03;6897245;20;20055;-42
2021/10/08 00:06:44;;;;;;;;;;;;;;;11.41;76.62;100407.72;6893734;20;7545;-42
2021/10/08 00:09:12;;;;;;;;;;;;;;;11.44;75.86;100410.22;6894762;20;7660;-40
2021/10/08 00:11:39;;;;;;;;;;;;;;;11.35;76.41;100408.06;6896641;20;19218;-39
2021/10/08 00:14:07;;;;;;;;;;;;;;;11.41;76.12;100410.41;6895364;20;18540;-40
2021/10/08 00:16:34;;;;;;;;;;;;;;;11.29;75.78;100419.09;6897318;20;7511;-40
2021/10/08 00:19:02;;;;;;;;;;;;;;;11.31;76.05;100418.06;6895280;20;7644;-41
2021/10/08 00:21:30;;;;;;;;;;;;;;;11.27;75.94;100421.91;6895029;20;19188;-42
2021/10/08 00:23:57;;;;;;;;;;;;;;;11.21;75.97;100417.69;6893726;20;7544;-43
2021/10/08 00:26:25;;;;;;;;;;;;;;;11.19;75.60;100422.28;6897127;20;7515;-41
2021/10/08 00:28:52;;;;;;;;;;;;;;;11.24;75.38;100426.53;6893431;20;19188;-40
2021/10/08 00:31:20;;;;;;;;;;;;;;;11.16;75.61;100422.47;6895068;20;18764;-41
2021/10/08 00:33:47;;;;;;;;;;;;;;;11.16;75.66;100424.25;6895393;20;19080;-42
2021/10/08 00:36:15;;;;;;;;;;;;;;;11.08;75.69;100419.28;6894882;20;7667;-44
2021/10/08 00:38:42;;;;;;;;;;;;;;;11.17;75.45;100426.00;6893937;20;7569;-41
2021/10/08 00:41:11;;;;;;;;;;;;;;;11.10;75.36;100430.81;6895487;20;7514;-41
2021/10/08 00:43:38;;;;;;;;;;;;;;;11.08;75.37;100431.84;6896904;20;7510;-40
2021/10/08 00:46:06;;;;;;;;;;;;;;;11.08;75.00;100434.53;6894096;20;7540;-41
2021/10/08 00:48:34;;;;;;;;;;;;;;;11.09;75.76;100431.78;6894085;20;18388;-42
2021/10/08 00:51:01;;;;;;;;;;;;;;;10.97;75.40;100437.78;6893232;20;7526;-39
2021/10/08 00:53:29;;;;;;;;;;;;;;;11.00;74.82;100434.94;6893983;20;7522;-40
2021/10/08 00:55:57;;;;;;;;;;;;;;;10.98;74.85;100439.53;6895253;20;10877;-41
2021/10/08 00:58:24;;;;;;;;;;;;;;;10.95;75.23;100448.63;6892027;20;9074;-41
2021/10/08 01:00:53;;;;;;;;;;;;;;;10.87;75.46;100445.44;6891836;20;18035;-40
2021/10/08 01:03:22;;;;;;;;;;;;;;;10.88;75.23;100447.19;6896406;20;7640;-41
2021/10/08 01:05:50;;;;;;;;;;;;;;;10.92;75.15;100454.13;6893306;20;14657;-39
2021/10/08 01:08:18;;;;;;;;;;;;;;;10.81;75.38;100448.44;6893229;20;7710;-42
2021/10/08 01:10:46;;;;;;;;;;;;;;;10.83;75.23;100443.84;6895221;20;12216;-41
2021/10/08 01:13:15;;;;;;;;;;;;;;;10.76;74.98;100456.72;6894508;20;19351;-40
2021/10/08 01:15:44;;;;;;;;;;;;;;;10.73;75.13;100453.31;6894860;20;18301;-39
2021/10/08 01:18:11;;;;;;;;;;;;;;;10.66;75.30;100460.81;6892981;20;19171;-42
2021/10/08 01:20:39;;;;;;;;;;;;;;;10.72;75.64;100457.84;6895600;20;19157;-43
2021/10/08 01:23:07;;;;;;;;;;;;;;;10.59;75.26;100456.69;6894983;20;8129;-39
2021/10/08 01:25:35;;;;;;;;;;;;;;;10.51;75.68;100453.53;6894763;20;7518;-42
2021/10/08 01:28:05;;;;;;;;;;;;;;;10.53;75.32;100456.97;6893254;20;18061;-39
2021/10/08 01:30:33;;;;;;;;;;;;;;;10.43;76.31;100461.09;6893792;20;19260;-40
2021/10/08 01:33:04;;;;;;;;;;;;;;;10.37;76.23;100461.38;6895303;20;7552;-39
2021/10/08 01:35:32;;;;;;;;;;;;;;;10.36;75.57;100462.31;6893254;20;7522;-40
2021/10/08 01:37:59;;;;;;;;;;;;;;;10.28;76.02;100451.94;6892597;20;7514;-41
2021/10/08 01:40:27;;;;;;;;;;;;;;;10.24;76.09;100453.88;6894594;20;19036;-40
2021/10/08 01:42:55;;;;;;;;;;;;;;;10.17;76.30;100460.47;6894631;20;8325;-41
2021/10/08 01:45:22;;;;;;;;;;;;;;;10.07;76.99;100459.16;6891443;20;18994;-40
2021/10/08 01:47:50;;;;;;;;;;;;;;;10.07;76.68;100461.84;6892413;20;16710;-40
2021/10/08 01:50:17;;;;;;;;;;;;;;;9.97;76.84;100461.41;6894774;20;7859;-41
2021/10/08 01:52:45;;;;;;;;;;;;;;;10.04;76.79;100467.38;6894093;20;7604;-42
2021/10/08 01:55:13;;;;;;;;;;;;;;;9.97;76.55;100464.09;6894628;20;7608;-41
2021/10/08 01:57:40;;;;;;;;;;;;;;;9.86;76.78;100467.28;6889936;20;7526;-40
2021/10/08 02:00:09;;;;;;;;;;;;;;;9.82;77.26;100478.19;6892389;20;7700;-43
2021/10/08 02:02:36;;;;;;;;;;;;;;;9.79;76.81;100472.97;6892093;20;7526;-41
2021/10/08 02:05:04;;;;;;;;;;;;;;;9.73;77.56;100468.78;6894483;20;7662;-40
2021/10/08 02:07:32;;;;;;;;;;;;;;;9.68;77.51;100468.13;6889447;20;7518;-40
2021/10/08 02:09:59;;;;;;;;;;;;;;;9.59;78.00;100471.22;6892929;20;15770;-39
2021/10/08 02:12:27;;;;;;;;;;;;;;;9.58;77.95;100467.66;6893103;20;14058;-39
2021/10/08 02:14:54;;;;;;;;;;;;;;;9.58;78.00;100469.47;6895317;20;7573;-40
2021/10/08 02:17:22;;;;;;;;;;;;;;;9.69;78.47;100467.19;6891987;20;7794;-41
2021/10/08 02:19:49;;;;;;;;;;;;;;;9.48;78.07;100470.81;6895219;20;7526;-40
2021/10/08 02:22:17;;;;;;;;;;;;;;;9.44;78.38;100476.31;6893171;20;17435;-41
2021/10/08 02:24:45;;;;;;;;;;;;;;;9.38;78.41;100471.22;6893076;20;19292;-39
2021/10/08 02:27:12;;;;;;;;;;;;;;;9.38;78.56;100476.59;6892725;20;7511;-41
2021/10/08 02:29:40;;;;;;;;;;;;;;;9.38;78.62;100475.72;6892806;20;18259;-40
2021/10/08 02:32:07;;;;;;;;;;;;;;;9.30;79.01;100481.41;6892815;20;19474;-40
2021/10/08 02:34:35;;;;;;;;;;;;;;;9.21;79.47;100489.84;6892996;20;18163;-39
2021/10/08 02:37:02;;;;;;;;;;;;;;;9.19;79.28;100484.56;6891874;20;7510;-40
2021/10/08 02:39:30;;;;;;;;;;;;;;;9.34;78.87;100488.38;6890552;20;7526;-40
2021/10/08 02:41:58;;;;;;;;;;;;;;;9.28;79.20;100483.28;6892150;20;7609;-41
2021/10/08 02:44:25;;;;;;;;;;;;;;;9.06;80.00;100487.81;6892129;20;7518;-42
2021/10/08 02:46:53;;;;;;;;;;;;;;;9.10;80.02;100486.75;6892972;20;8002;-41
2021/10/08 02:49:21;;;;;;;;;;;;;;;9.22;80.19;100494.28;6889343;20;20185;-40
2021/10/08 02:51:50;;;;;;;;;;;;;;;9.01;79.93;100488.91;6891383;20;7517;-42
2021/10/08 02:54:17;;;;;;;;;;;;;;;9.10;80.22;100495.66;6890841;20;17728;-44
2021/10/08 02:56:45;;;;;;;;;;;;;;;8.91;80.81;100498.25;6891552;20;16423;-39
2021/10/08 02:59:13;;;;;;;;;;;;;;;8.88;80.66;100495.72;6890884;20;7538;-40
2021/10/08 03:01:41;;;;;;;;;;;;;;;8.93;80.49;100500.88;6892562;20;7537;-41
2021/10/08 03:04:08;;;;;;;;;;;;;;;8.88;80.57;100497.53;6890653;20;17008;-40
2021/10/08 03:06:36;;;;;;;;;;;;;;;8.89;80.58;100500.13;6892354;20;17785;-41
2021/10/08 03:09:04;;;;;;;;;;;;;;;8.83;81.12;100495.03;6889728;20;7518;-40
2021/10/08 03:11:31;;;;;;;;;;;;;;;8.75;81.24;100497.16;6892532;20;7544;-41
2021/10/08 03:13:59;;;;;;;;;;;;;;;9.02;81.56;100495.13;6896942;20;7760;-41
2021/10/08 03:16:26;;;;;;;;;;;;;;;8.85;80.99;100497.66;6896047;20;12934;-41
2021/10/08 03:18:54;;;;;;;;;;;;;;;8.70;81.26;100501.81;6895811;20;20149;-40
2021/10/08 03:21:21;;;;;;;;;;;;;;;8.69;81.68;100502.72;6895993;20;16984;-41
2021/10/08 03:23:49;;;;;;;;;;;;;;;8.80;81.33;100497.84;6897641;20;7651;-40
2021/10/08 03:26:16;;;;;;;;;;;;;;;8.62;81.69;100490.56;6897540;20;7526;-41
2021/10/08 03:28:45;;;;;;;;;;;;;;;8.92;80.40;100499.97;6896631;20;7760;-40
2021/10/08 03:31:14;;;;;;;;;;;;;;;8.62;81.25;100501.25;6895168;20;7731;-40
2021/10/08 03:33:41;;;;;;;;;;;;;;;8.70;81.27;100496.47;6897386;20;8342;-41
2021/10/08 03:36:17;;;;;;;;;;;;;;;8.72;81.85;100497.28;6895876;20;19309;-42
2021/10/08 03:38:45;;;;;;;;;;;;;;;8.53;81.79;100503.38;6894538;20;17600;-40
2021/10/08 03:41:17;;;;;;;;;;;;;;;8.57;81.30;100499.63;6896277;20;7548;-41
2021/10/08 03:43:45;;;;;;;;;;;;;;;8.63;81.24;100503.84;6897513;20;7518;-41
2021/10/08 03:46:14;;;;;;;;;;;;;;;8.58;81.21;100505.84;6895841;20;7552;-39
2021/10/08 03:51:29;;;;;;;;;;;;;;;8.74;81.64;100511.44;6896487;20;18038;-41
2021/10/08 03:53:58;;;;;;;;;;;;;;;8.62;81.38;100511.97;6897089;20;7522;-41
2021/10/08 03:56:27;;;;;;;;;;;;;;;8.77;80.62;100506.88;6896814;20;7588;-40
2021/10/08 03:58:56;;;;;;;;;;;;;;;8.79;80.06;100509.47;6895842;20;7650;-39
2021/10/08 04:01:24;;;;;;;;;;;;;;;8.90;78.89;100523.31;6895198;20;17442;-41
2021/10/08 04:03:52;;;;;;;;;;;;;;;8.61;79.86;100516.47;6895577;20;7518;-41
2021/10/08 04:06:20;;;;;;;;;;;;;;;8.80;79.95;100524.59;6896464;20;7526;-40
2021/10/08 04:08:47;;;;;;;;;;;;;;;8.60;82.96;100520.03;6894113;20;7549;-40
2021/10/08 04:11:15;;;;;;;;;;;;;;;9.00;80.62;100513.94;6896351;20;18788;-41
2021/10/08 04:13:42;;;;;;;;;;;;;;;8.45;80.92;100521.53;6895146;20;7545;-40
2021/10/08 04:16:10;;;;;;;;;;;;;;;8.52;81.39;100517.66;6895894;20;7589;-41
2021/10/08 04:18:37;;;;;;;;;;;;;;;8.65;80.38;100528.75;6894018;20;7526;-42
2021/10/08 04:21:05;;;;;;;;;;;;;;;8.32;81.19;100520.22;6896465;20;7538;-41
2021/10/08 04:23:32;;;;;;;;;;;;;;;8.31;81.62;100537.22;6896106;20;16991;-40
2021/10/08 04:26:00;;;;;;;;;;;;;;;8.65;81.08;100538.59;6894135;20;18647;-41
2021/10/08 04:28:27;;;;;;;;;;;;;;;8.43;81.26;100535.91;6893912;20;19221;-42
2021/10/08 04:30:55;;;;;;;;;;;;;;;8.53;81.38;100540.84;6894483;20;18339;-40
2021/10/08 04:33:25;;;;;;;;;;;;;;;8.30;81.94;100551.53;6894104;20;17309;-40
2021/10/08 04:35:56;;;;;;;;;;;;;;;8.13;82.02;100536.09;6894444;20;18777;-40
2021/10/08 04:38:23;;;;;;;;;;;;;;;8.16;81.62;100540.47;6893490;20;7541;-40
2021/10/08 04:40:51;;;;;;;;;;;;;;;8.45;82.15;100548.31;6894510;20;17375;-39
2021/10/08 04:43:19;;;;;;;;;;;;;;;8.53;81.33;100548.88;6896840;20;7642;-40
2021/10/08 04:45:46;;;;;;;;;;;;;;;8.17;81.56;100547.59;6895168;20;7659;-40
2021/10/08 04:48:14;;;;;;;;;;;;;;;8.14;81.69;100544.09;6895697;20;7652;-42
2021/10/08 04:50:42;;;;;;;;;;;;;;;8.31;81.49;100550.59;6896332;20;7644;-41
2021/10/08 04:53:22;;;;;;;;;;;;;;;8.14;81.19;100554.78;6895871;20;7522;-40
2021/10/08 04:55:51;;;;;;;;;;;;;;;8.14;80.97;100561.94;6894549;20;7644;-40
2021/10/08 04:58:19;;;;;;;;;;;;;;;8.05;81.46;100557.78;6893871;20;9829;-39
2021/10/08 05:00:47;;;;;;;;;;;;;;;8.08;81.25;100547.00;6894449;20;7652;-40
2021/10/08 05:03:17;;;;;;;;;;;;;;;8.00;82.11;100558.91;6895652;20;7580;-42
2021/10/08 05:05:52;;;;;;;;;;;;;;;8.03;81.93;100557.00;6894368;20;7605;-40
2021/10/08 05:08:22;;;;;;;;;;;;;;;7.99;81.80;100559.84;6894703;20;18850;-40
2021/10/08 05:10:50;;;;;;;;;;;;;;;7.98;81.58;100558.97;6893272;20;18318;-41
2021/10/08 05:13:18;;;;;;;;;;;;;;;8.07;80.97;100563.97;6891475;20;12468;-42
2021/10/08 05:15:46;;;;;;;;;;;;;;;8.01;81.15;100564.19;6894455;20;16077;-40
2021/10/08 05:18:13;;;;;;;;;;;;;;;8.02;81.17;100565.06;6894126;20;16116;-40
2021/10/08 05:20:41;;;;;;;;;;;;;;;8.21;80.55;100567.91;6894696;20;12386;-40
2021/10/08 05:23:09;;;;;;;;;;;;;;;8.13;80.43;100569.06;6891598;20;19273;-40
2021/10/08 05:25:38;;;;;;;;;;;;;;;8.10;79.87;100565.66;6895603;20;7530;-39
2021/10/08 05:28:06;;;;;;;;;;;;;;;8.08;80.29;100564.84;6894464;20;7526;-39
2021/10/08 05:30:33;;;;;;;;;;;;;;;8.05;80.49;100565.81;6894432;20;9235;-39
2021/10/08 05:33:01;;;;;;;;;;;;;;;8.13;79.85;100563.72;6893538;20;7525;-40
2021/10/08 05:35:29;;;;;;;;;;;;;;;8.24;79.85;100570.47;6892922;20;16437;-39
2021/10/08 05:37:56;;;;;;;;;;;;;;;8.21;79.78;100565.25;6892164;20;17196;-40
2021/10/08 05:40:28;;;;;;;;;;;;;;;8.23;79.46;100568.75;6892122;20;7538;-40
2021/10/08 05:42:56;;;;;;;;;;;;;;;8.13;79.73;100578.91;6893498;20;7536;-41
2021/10/08 05:45:23;;;;;;;;;;;;;;;8.20;79.19;100582.25;6894664;20;7518;-40
2021/10/08 05:47:51;;;;;;;;;;;;;;;8.27;79.30;100581.09;6894389;20;7514;-39
2021/10/08 05:50:18;;;;;;;;;;;;;;;8.24;78.57;100574.06;6894520;20;20384;-39
2021/10/08 05:52:46;;;;;;;;;;;;;;;8.26;78.45;100579.31;6893457;20;17086;-40
2021/10/08 05:55:13;;;;;;;;;;;;;;;8.40;78.70;100582.41;6893676;20;16999;-39
2021/10/08 05:57:41;;;;;;;;;;;;;;;8.32;78.49;100585.34;6893662;20;7519;-40
2021/10/08 06:00:09;;;;;;;;;;;;;;;8.44;78.03;100594.72;6892178;20;7549;-40
2021/10/08 06:02:36;;;;;;;;;;;;;;;8.34;78.35;100588.78;6893199;20;16849;-39
2021/10/08 06:05:04;;;;;;;;;;;;;;;8.38;78.07;100592.25;6894143;20;19281;-41
2021/10/08 06:07:32;;;;;;;;;;;;;;;8.39;77.99;100588.66;6890658;20;7560;-40
2021/10/08 06:10:00;;;;;;;;;;;;;;;8.35;77.80;100585.22;6894837;20;8000;-39
2021/10/08 06:12:27;;;;;;;;;;;;;;;8.46;76.69;100587.50;6893154;20;17815;-40
2021/10/08 06:14:55;;;;;;;;;;;;;;;8.46;76.37;100587.50;6894419;20;17911;-39
2021/10/08 06:17:22;;;;;;;;;;;;;;;8.76;76.07;100579.19;6892301;20;17146;-39
2021/10/08 06:19:50;;;;;;;;;;;;;;;8.71;77.03;100591.91;6892447;20;19258;-39
2021/10/08 06:22:17;;;;;;;;;;;;;;;8.68;76.05;100587.53;6892902;20;7522;-41
2021/10/08 06:24:45;;;;;;;;;;;;;;;8.73;76.28;100590.91;6893205;20;19577;-39
2021/10/08 06:27:12;;;;;;;;;;;;;;;8.80;74.99;100588.88;6892570;20;19233;-41
2021/10/08 06:29:40;;;;;;;;;;;;;;;8.95;74.96;100590.03;6893900;20;7630;-41
2021/10/08 06:32:07;;;;;;;;;;;;;;;8.93;74.15;100587.44;6893895;20;7540;-39
2021/10/08 06:34:35;;;;;;;;;;;;;;;9.35;73.72;100591.97;6892672;20;7556;-39
2021/10/08 06:37:03;;;;;;;;;;;;;;;9.48;73.36;100594.13;6893572;20;7582;-41
2021/10/08 06:39:30;;;;;;;;;;;;;;;9.55;72.32;100596.47;6891784;20;7601;-41
2021/10/08 06:42:02;;;;;;;;;;;;;;;10.04;71.11;100593.47;6893374;20;18437;-41
2021/10/08 06:44:30;;;;;;;;;;;;;;;12.56;62.83;100607.84;6893343;20;7628;-40
2021/10/08 06:46:57;;;;;;;;;;;;;;;12.61;63.13;100605.78;6893596;20;7598;-41
2021/10/08 06:49:25;;;;;;;;;;;;;;;11.43;62.91;100610.19;6891819;20;7530;-40
2021/10/08 06:51:52;;;;;;;;;;;;;;;11.34;63.89;100610.63;6893014;20;18953;-42
2021/10/08 06:54:20;;;;;;;;;;;;;;;10.67;65.79;100604.03;6892918;20;7545;-40
2021/10/08 06:56:47;;;;;;;;;;;;;;;9.96;70.04;100606.34;6892317;20;18419;-42
2021/10/08 06:59:15;;;;;;;;;;;;;;;10.09;69.75;100604.88;6889723;20;7524;-40
2021/10/08 07:01:42;;;;;;;;;;;;;;;10.13;69.43;100610.97;6888965;20;18800;-42
2021/10/08 07:04:10;;;;;;;;;;;;;;;10.24;69.53;100614.03;6891341;20;20234;-41
2021/10/08 07:06:37;;;;;;;;;;;;;;;10.32;69.42;100614.56;6892727;20;7549;-42
2021/10/08 07:09:05;;;;;;;;;;;;;;;10.70;69.91;100610.13;6891257;20;7573;-40
2021/10/08 07:11:33;;;;;;;;;;;;;;;10.83;68.30;100614.94;6891434;20;8526;-40
2021/10/08 07:14:00;;;;;;;;;;;;;;;10.52;69.07;100616.34;6892589;20;19007;-39
2021/10/08 07:16:28;;;;;;;;;;;;;;;10.82;68.01;100613.16;6895748;20;7518;-40
2021/10/08 07:18:57;;;;;;;;;;;;;;;10.66;67.65;100621.94;6894073;20;7544;-40
2021/10/08 07:21:24;;;;;;;;;;;;;;;10.82;67.70;100619.44;6896209;20;7541;-39
2021/10/08 07:23:52;;;;;;;;;;;;;;;10.94;67.53;100618.81;6894814;20;7522;-45
2021/10/08 07:26:22;;;;;;;;;;;;;;;11.04;67.24;100632.69;6893177;20;20134;-40
2021/10/08 07:28:50;;;;;;;;;;;;;;;10.66;67.61;100621.94;6894630;20;15005;-40
2021/10/08 07:31:17;;;;;;;;;;;;;;;11.24;67.67;100631.72;6894352;20;17965;-40
2021/10/08 07:33:45;;;;;;;;;;;;;;;11.14;66.22;100639.38;6896276;20;7522;-41
2021/10/08 07:36:12;;;;;;;;;;;;;;;10.82;66.58;100626.59;6894579;20;18831;-41
2021/10/08 07:38:40;;;;;;;;;;;;;;;11.02;67.00;100636.41;6892483;20;7538;-38
2021/10/08 07:41:09;;;;;;;;;;;;;;;11.28;66.39;100635.13;6896291;20;7526;-40
2021/10/08 07:43:37;;;;;;;;;;;;;;;11.38;67.10;100634.59;6889188;20;7526;-39
2021/10/08 07:46:05;;;;;;;;;;;;;;;11.25;66.98;100637.97;6894689;20;16821;-40
2021/10/08 07:48:33;;;;;;;;;;;;;;;11.18;67.17;100632.88;6892510;20;14908;-40
2021/10/08 07:51:01;;;;;;;;;;;;;;;11.54;66.93;100634.72;6896215;20;7633;-40
2021/10/08 07:53:31;;;;;;;;;;;;;;;11.51;65.67;100629.50;6893689;20;11011;-40
2021/10/08 07:56:00;;;;;;;;;;;;;;;11.26;65.85;100639.72;6896128;20;7609;-38
2021/10/08 07:58:28;;;;;;;;;;;;;;;11.71;66.04;100636.53;6892845;20;16923;-40
2021/10/08 08:00:58;;;;;;;;;;;;;;;11.43;65.15;100637.06;6899287;20;19060;-39
2021/10/08 08:03:26;;;;;;;;;;;;;;;11.30;66.06;100646.69;6901065;20;7525;-40
2021/10/08 08:05:55;;;;;;;;;;;;;;;11.60;65.17;100633.53;6899698;20;7652;-39
2021/10/08 08:08:23;;;;;;;;;;;;;;;11.81;65.77;100642.31;6900428;20;7518;-39
2021/10/08 08:10:52;;;;;;;;;;;;;;;11.21;65.77;100630.03;6898853;20;18372;-38
2021/10/08 08:13:19;;;;;;;;;;;;;;;11.49;65.83;100634.06;6901087;20;7514;-38
2021/10/08 08:15:48;;;;;;;;;;;;;;;12.21;64.58;100629.50;6898361;20;18712;-38
2021/10/08 08:18:15;;;;;;;;;;;;;;;12.14;65.00;100628.06;6898347;20;17469;-41
2021/10/08 08:20:43;;;;;;;;;;;;;;;11.84;64.88;100636.78;6897590;20;16985;-41
2021/10/08 08:23:11;;;;;;;;;;;;;;;11.85;65.03;100635.84;6901097;20;7716;-40
2021/10/08 08:25:38;;;;;;;;;;;;;;;11.44;64.45;100628.03;6899848;20;7526;-40
2021/10/08 08:28:06;;;;;;;;;;;;;;;11.39;65.06;100635.47;6899758;20;7540;-42
2021/10/08 08:30:38;;;;;;;;;;;;;;;11.47;65.03;100627.88;6900588;20;15264;-39
2021/10/08 08:33:06;;;;;;;;;;;;;;;11.54;66.03;100629.31;6899274;20;17861;-40
2021/10/08 08:35:33;;;;;;;;;;;;;;;11.36;65.98;100630.25;6900963;20;18346;-39
2021/10/08 08:38:01;;;;;;;;;;;;;;;11.41;66.18;100625.50;6898037;20;7538;-41
2021/10/08 08:40:29;;;;;;;;;;;;;;;11.16;66.40;100623.16;6899036;20;11350;-40
2021/10/08 08:42:58;;;;;;;;;;;;;;;11.31;66.83;100626.91;6898863;20;7660;-41
2021/10/08 08:45:30;;;;;;;;;;;;;;;11.01;66.89;100623.94;6898963;20;7727;-40
2021/10/08 08:48:02;;;;;;;;;;;;;;;11.07;67.40;100623.63;6898220;20;18982;-41
2021/10/08 08:50:31;;;;;;;;;;;;;;;11.21;68.16;100621.97;6899220;20;18136;-40
2021/10/08 08:52:59;;;;;;;;;;;;;;;11.02;68.25;100621.16;6899697;20;8048;-40
2021/10/08 08:55:27;;;;;;;;;;;;;;;11.15;67.95;100621.41;6898138;20;15649;-41
2021/10/08 08:57:55;;;;;;;;;;;;;;;11.16;67.59;100618.69;6898622;20;18062;-40
2021/10/08 09:00:24;;;;;;;;;;;;;;;11.08;66.74;100620.84;6893555;20;17637;-42
2021/10/08 09:02:53;;;;;;;;;;;;;;;11.26;67.18;100623.59;6893399;20;15227;-42
2021/10/08 09:05:26;;;;;;;;;;;;;;;11.41;68.04;100626.38;6896131;20;17277;-39
2021/10/08 09:07:58;;;;;;;;;;;;;;;11.60;67.63;100618.25;6897795;20;7655;-40
2021/10/08 09:10:28;;;;;;;;;;;;;;;11.77;66.30;100620.09;6896264;20;7514;-41
2021/10/08 09:12:57;;;;;;;;;;;;;;;11.95;66.78;100618.28;6895617;20;18169;-40
2021/10/08 09:15:44;;;;;;;;;;;;;;;12.25;65.71;100618.50;6897921;20;7675;-40
2021/10/08 09:18:14;;;;;;;;;;;;;;;12.08;65.42;100619.41;6899018;20;7529;-40
2021/10/08 09:21:10;;;;;;;;;;;;;;;12.42;65.01;100622.09;6896320;20;18962;-40
2021/10/08 09:23:46;;;;;;;;;;;;;;;12.48;64.10;100614.56;6897740;20;19573;-40
2021/10/08 09:26:25;;;;;;;;;;;;;;;12.51;64.17;100616.22;6900152;20;7537;-39
2021/10/08 09:28:57;;;;;;;;;;;;;;;12.85;63.07;100617.91;6897995;20;7522;-40
2021/10/08 09:31:36;;;;;;;;;;;;;;;13.15;63.80;100622.50;6898260;20;7614;-40
2021/10/08 09:34:14;;;;;;;;;;;;;;;13.10;62.82;100613.81;6899056;20;7514;-41
2021/10/08 09:36:45;;;;;;;;;;;;;;;12.94;61.68;100621.91;6897575;20;19963;-40
2021/10/08 09:39:30;;;;;;;;;;;;;;;13.25;62.71;100612.94;6895651;20;20398;-41
2021/10/08 09:42:11;;;;;;;;;;;;;;;13.10;62.19;100611.13;6898005;20;20362;-41
2021/10/08 09:44:51;;;;;;;;;;;;;;;13.42;62.06;100616.50;6896650;20;19881;-41
2021/10/08 09:47:24;;;;;;;;;;;;;;;13.02;60.80;100602.59;6898645;20;7640;-42
2021/10/08 09:50:10;;;;;;;;;;;;;;;13.20;60.15;100597.97;6895663;20;7529;-41
2021/10/08 09:52:39;;;;;;;;;;;;;;;13.34;60.69;100601.63;6896791;20;7530;-40
2021/10/08 09:55:10;;;;;;;;;;;;;;;13.72;60.96;100598.50;6897977;20;17310;-43
2021/10/08 09:57:50;;;;;;;;;;;;;;;13.80;60.10;100604.31;6896145;20;18000;-40
2021/10/08 10:00:43;;;;;;;;;;;;;;;14.03;59.57;100596.63;6897869;20;17822;-42
2021/10/08 10:03:14;;;;;;;;;;;;;;;13.79;58.86;100594.47;6899324;20;20885;-40
2021/10/08 10:05:42;;;;;;;;;;;;;;;14.13;58.78;100600.50;6897865;20;7556;-39
2021/10/08 10:08:11;;;;;;;;;;;;;;;13.96;56.88;100592.59;6896209;20;7529;-40
2021/10/08 10:10:39;;;;;;;;;;;;;;;14.18;58.63;100603.78;6898027;20;18433;-40
2021/10/08 10:13:10;;;;;;;;;;;;;;;14.34;57.15;100592.91;6896961;20;19230;-41
2021/10/08 10:15:41;;;;;;;;;;;;;;;14.25;58.37;100602.47;6896636;20;7522;-40
2021/10/08 10:18:15;;;;;;;;;;;;;;;13.99;55.93;100598.66;6895724;20;16610;-41
2021/10/08 10:20:52;;;;;;;;;;;;;;;14.30;55.97;100602.19;6896368;20;7530;-40
2021/10/08 10:23:23;;;;;;;;;;;;;;;14.26;56.57;100596.06;6893710;20;18874;-41
2021/10/08 10:25:51;;;;;;;;;;;;;;;14.65;57.71;100597.28;6897182;20;7544;-40
2021/10/08 10:28:20;;;;;;;;;;;;;;;14.48;56.59;100600.13;6894810;20;18882;-41
2021/10/08 10:30:49;;;;;;;;;;;;;;;14.55;56.65;100593.41;6899126;20;7730;-40
2021/10/08 10:33:28;;;;;;;;;;;;;;;14.75;57.86;100594.00;6895441;20;7536;-42
2021/10/08 10:35:59;;;;;;;;;;;;;;;14.75;58.64;100596.69;6895872;20;18191;-40
2021/10/08 10:38:39;;;;;;;;;;;;;;;14.91;56.98;100597.44;6894965;20;7518;-40
2021/10/08 10:41:10;;;;;;;;;;;;;;;14.76;56.56;100595.72;6894569;20;17394;-44
2021/10/08 10:43:44;;;;;;;;;;;;;;;14.58;56.32;100595.06;6896532;20;17953;-40
2021/10/08 10:52:00;;;;;;;;;;;;;;;14.41;55.76;100598.81;6893923;20;20173;-40
2021/10/08 10:54:53;;;;;;;;;;;;;;;14.42;55.83;100589.72;6896560;20;7589;-41
2021/10/08 10:57:22;;;;;;;;;;;;;;;14.91;56.74;100594.72;6893877;20;7529;-40
2021/10/08 10:59:50;;;;;;;;;;;;;;;14.60;55.86;100594.00;6895691;20;19862;-41
2021/10/08 11:02:25;;;;;;;;;;;;;;;14.83;56.06;100583.53;6895718;20;7601;-41
2021/10/08 11:05:20;;;;;;;;;;;;;;;14.57;56.38;100583.38;6895782;20;19531;-39
2021/10/08 11:08:17;;;;;;;;;;;;;;;14.90;56.02;100584.84;6895423;20;7556;-40
2021/10/08 11:10:59;;;;;;;;;;;;;;;14.95;55.63;100589.97;6896136;20;7615;-39
2021/10/08 11:13:37;;;;;;;;;;;;;;;14.86;55.84;100583.34;6895810;20;19914;-40
2021/10/08 11:16:10;;;;;;;;;;;;;;;14.77;55.07;100584.81;6891945;20;19012;-41
2021/10/08 11:18:48;;;;;;;;;;;;;;;14.81;54.80;100585.47;6893341;20;7589;-41
2021/10/08 11:21:30;;;;;;;;;;;;;;;14.98;55.06;100587.06;6894442;20;19027;-40
2021/10/08 11:24:22;;;;;;;;;;;;;;;15.09;54.53;100592.66;6895145;20;17205;-40
2021/10/08 11:27:01;;;;;;;;;;;;;;;15.22;55.52;100581.88;6891998;20;7608;-41
2021/10/08 11:29:32;;;;;;;;;;;;;;;15.36;54.78;100577.28;6896353;20;7585;-41
2021/10/08 11:32:13;;;;;;;;;;;;;;;15.61;55.87;100586.44;6894371;20;19969;-40
2021/10/08 11:34:52;;;;;;;;;;;;;;;15.46;55.15;100585.66;6897592;20;7581;-41
2021/10/08 11:37:20;;;;;;;;;;;;;;;15.39;53.79;100587.03;6901479;20;7644;-40
2021/10/08 11:39:49;;;;;;;;;;;;;;;15.13;53.21;100581.50;6898049;20;7530;-39
2021/10/08 11:42:19;;;;;;;;;;;;;;;15.28;53.03;100585.06;6901567;20;7525;-39
2021/10/08 11:52:40;;;;;;;;;;;;;;;15.83;52.77;100564.22;6898870;20;7552;-39
2021/10/08 11:55:22;;;;;;;;;;;;;;;15.62;52.77;100566.53;6900668;20;7639;-39
2021/10/08 11:57:51;;;;;;;;;;;;;;;15.52;51.82;100566.28;6899344;20;7616;-40
2021/10/08 12:00:20;;;;;;;;;;;;;;;15.77;51.44;100564.63;6900692;20;7525;-39
2021/10/08 12:03:02;;;;;;;;;;;;;;;15.97;50.76;100560.53;6900591;20;7541;-38
2021/10/08 12:05:46;;;;;;;;;;;;;;;15.86;51.91;100558.59;6899795;20;15391;-39
2021/10/08 12:08:17;;;;;;;;;;;;;;;16.41;51.34;100562.81;6900710;20;7564;-41
2021/10/08 12:10:55;;;;;;;;;;;;;;;16.26;50.65;100558.47;6900281;20;7507;-39
2021/10/08 12:13:42;;;;;;;;;;;;;;;16.38;51.14;100559.47;6896743;20;20395;-40
2021/10/08 12:16:13;;;;;;;;;;;;;;;16.31;49.72;100561.72;6899114;20;19608;-41
2021/10/08 12:18:56;;;;;;;;;;;;;;;16.29;49.23;100560.09;6897984;20;7597;-41
2021/10/08 12:21:36;;;;;;;;;;;;;;;16.19;48.70;100554.47;6897190;20;17941;-40
2021/10/08 12:24:10;;;;;;;;;;;;;;;16.07;49.39;100555.34;6901047;20;7526;-39
2021/10/08 12:26:42;;;;;;;;;;;;;;;15.91;48.87;100556.44;6899042;20;19617;-38
2021/10/08 12:29:13;;;;;;;;;;;;;;;15.97;49.63;100564.09;6894427;20;7628;-39
2021/10/08 12:31:57;;;;;;;;;;;;;;;16.05;50.28;100557.28;6900881;20;7522;-40
2021/10/08 12:34:54;;;;;;;;;;;;;;;15.99;48.94;100554.03;6899154;20;19002;-41
2021/10/08 12:37:31;;;;;;;;;;;;;;;16.00;49.26;100560.31;6897618;20;7631;-42
2021/10/08 12:40:16;;;;;;;;;;;;;;;15.82;48.58;100565.16;6898268;20;17742;-39
2021/10/08 12:42:59;;;;;;;;;;;;;;;15.85;50.59;100562.28;6899213;20;20853;-39
2021/10/08 12:45:42;;;;;;;;;;;;;;;16.20;51.28;100567.91;6897945;20;7525;-39
2021/10/08 12:48:18;;;;;;;;;;;;;;;16.04;49.68;100559.13;6896741;20;7530;-39
2021/10/08 12:50:46;;;;;;;;;;;;;;;15.93;49.38;100551.78;6899341;20;19897;-38
2021/10/08 12:53:19;;;;;;;;;;;;;;;15.90;48.92;100554.66;6897779;20;17338;-39
2021/10/08 12:55:48;;;;;;;;;;;;;;;15.81;50.29;100560.75;6899275;20;19010;-40
2021/10/08 12:58:19;;;;;;;;;;;;;;;15.89;49.32;100554.78;6896370;20;7522;-40
2021/10/08 13:00:50;;;;;;;;;;;;;;;15.79;49.76;100562.69;6898167;20;19420;-38
2021/10/08 13:03:40;;;;;;;;;;;;;;;15.78;50.43;100563.66;6899379;20;7526;-40
2021/10/08 13:06:17;;;;;;;;;;;;;;;15.70;51.99;100558.78;6900037;20;7536;-38
2021/10/08 13:09:18;;;;;;;;;;;;;;;15.71;52.60;100565.06;6896545;20;20583;-37
2021/10/08 13:11:49;;;;;;;;;;;;;;;15.59;51.10;100556.78;6900495;20;7986;-38
2021/10/08 13:14:28;;;;;;;;;;;;;;;15.61;52.95;100562.06;6899501;20;7522;-38
2021/10/08 13:16:56;;;;;;;;;;;;;;;15.80;53.46;100553.59;6898333;20;7651;-41
2021/10/08 13:19:36;;;;;;;;;;;;;;;15.43;51.03;100556.09;6895820;20;14916;-38